Time;durP1;ratioP1;P1;durP2;ratioP2;P2;SDS_P1;SDS_P2;PMS_P1;PMS_P2;Temp;Humidity;BMP_temperature;BMP_pressure;BME280_temperature;BME280_humidity;BME280_pressure;Samples;Min_cycle;Max_cycle;Signal;HPM_P1;HPM_P2
2021/04/14 00:02:04;;;;;;;12.43;5.30;;;;;;;;;;5109862;28;20475;-66
2021/04/14 00:04:30;;;;;;;10.95;5.40;;;;;;;;;;5109795;28;20059;-66
2021/04/14 00:06:58;;;;;;;9.00;3.30;;;;;;;;;;5109244;28;20024;-65
2021/04/14 00:09:25;;;;;;;5.43;2.72;;;;;;;;;;5109517;28;20028;-66
2021/04/14 00:11:52;;;;;;;3.42;1.90;;;;;;;;;;5109445;28;20046;-66
2021/04/14 00:14:18;;;;;;;7.25;2.75;;;;;;;;;;5109107;28;20048;-66
2021/04/14 00:16:44;;;;;;;3.40;1.58;;;;;;;;;;5109506;28;20016;-66
2021/04/14 00:19:10;;;;;;;3.65;1.63;;;;;;;;;;5109195;28;20308;-66
2021/04/14 00:21:36;;;;;;;5.07;1.70;;;;;;;;;;5108971;28;20020;-66
2021/04/14 00:24:03;;;;;;;3.42;1.70;;;;;;;;;;5109571;28;20107;-66
2021/04/14 00:26:29;;;;;;;3.30;1.52;;;;;;;;;;5109173;28;20081;-66
2021/04/14 00:28:55;;;;;;;5.13;2.05;;;;;;;;;;5108804;28;20106;-66
2021/04/14 00:31:37;;;;;;;4.57;2.03;;;;;;;;;;5098677;28;20020;-65
2021/04/14 00:34:03;;;;;;;5.40;2.22;;;;;;;;;;5094279;28;20115;-66
2021/04/14 00:36:30;;;;;;;4.50;2.17;;;;;;;;;;5095147;28;20091;-66
2021/04/14 00:38:56;;;;;;;3.70;2.03;;;;;;;;;;5095310;28;20106;-66
2021/04/14 00:41:23;;;;;;;2.67;1.45;;;;;;;;;;5095367;28;20028;-65
2021/04/14 00:43:49;;;;;;;2.72;1.70;;;;;;;;;;5095493;28;20016;-66
2021/04/14 00:46:15;;;;;;;6.18;2.67;;;;;;;;;;5094002;28;20047;-66
2021/04/14 00:48:42;;;;;;;4.57;2.08;;;;;;;;;;5093821;28;20040;-66
2021/04/14 00:51:08;;;;;;;6.72;2.72;;;;;;;;;;5095201;28;20463;-66
2021/04/14 00:53:34;;;;;;;6.10;3.17;;;;;;;;;;5095110;28;20042;-66
2021/04/14 00:56:01;;;;;;;6.80;2.75;;;;;;;;;;5094768;28;20054;-66
2021/04/14 00:58:27;;;;;;;4.88;2.25;;;;;;;;;;5094944;28;20070;-65
2021/04/14 01:00:53;;;;;;;4.85;2.42;;;;;;;;;;5095235;28;20028;-66
2021/04/14 01:03:23;;;;;;;4.85;2.00;;;;;;;;;;5094707;28;20511;-66
2021/04/14 01:05:50;;;;;;;3.70;1.92;;;;;;;;;;5094895;28;20028;-66
2021/04/14 01:08:16;;;;;;;5.13;2.53;;;;;;;;;;5094945;28;20499;-66
2021/04/14 01:10:43;;;;;;;5.15;2.58;;;;;;;;;;5093147;28;20032;-66
2021/04/14 01:13:10;;;;;;;5.47;2.90;;;;;;;;;;5094761;28;20020;-66
2021/04/14 01:15:38;;;;;;;4.13;2.35;;;;;;;;;;5094789;28;20361;-66
2021/04/14 01:18:05;;;;;;;4.13;2.45;;;;;;;;;;5094266;28;20051;-65
2021/04/14 01:20:33;;;;;;;3.85;2.08;;;;;;;;;;5094525;28;20404;-65
2021/04/14 01:22:59;;;;;;;4.10;2.08;;;;;;;;;;5094824;28;20027;-65
2021/04/14 01:25:27;;;;;;;7.43;4.75;;;;;;;;;;5094216;28;20028;-66
2021/04/14 01:27:54;;;;;;;4.82;2.65;;;;;;;;;;5094459;28;20153;-67
2021/04/14 01:30:22;;;;;;;5.32;2.30;;;;;;;;;;5094448;28;20024;-66
2021/04/14 01:32:48;;;;;;;6.03;2.03;;;;;;;;;;5094365;28;20418;-66
2021/04/14 01:35:15;;;;;;;3.38;1.83;;;;;;;;;;5094344;28;20028;-65
2021/04/14 01:37:41;;;;;;;7.68;3.08;;;;;;;;;;5093859;28;20091;-65
2021/04/14 01:40:08;;;;;;;4.88;2.40;;;;;;;;;;5094352;28;20089;-65
2021/04/14 01:42:34;;;;;;;6.57;3.13;;;;;;;;;;5093317;28;20073;-65
2021/04/14 01:45:00;;;;;;;8.07;3.13;;;;;;;;;;5093824;28;20055;-66
2021/04/14 01:47:27;;;;;;;5.35;2.63;;;;;;;;;;5094110;28;20016;-66
2021/04/14 01:49:53;;;;;;;7.13;3.08;;;;;;;;;;5094011;28;20043;-66
2021/04/14 01:52:19;;;;;;;5.13;1.83;;;;;;;;;;5092313;28;20082;-66
2021/04/14 01:54:45;;;;;;;9.00;3.38;;;;;;;;;;5093951;28;20107;-66
2021/04/14 01:57:11;;;;;;;7.97;2.75;;;;;;;;;;5093958;28;20020;-66
2021/04/14 01:59:38;;;;;;;4.97;2.10;;;;;;;;;;5093635;28;20028;-66
2021/04/14 02:02:04;;;;;;;4.53;2.00;;;;;;;;;;5093979;28;20537;-65
2021/04/14 02:04:31;;;;;;;6.05;2.53;;;;;;;;;;5093719;28;20027;-66
2021/04/14 02:06:57;;;;;;;3.17;1.80;;;;;;;;;;5093334;28;20016;-66
2021/04/14 02:09:23;;;;;;;5.05;2.65;;;;;;;;;;5093604;28;20024;-66
2021/04/14 02:11:50;;;;;;;3.50;1.80;;;;;;;;;;5093689;28;20024;-65
2021/04/14 02:14:16;;;;;;;5.30;2.35;;;;;;;;;;5093206;28;20020;-65
2021/04/14 02:16:42;;;;;;;6.13;2.63;;;;;;;;;;5093794;28;20342;-66
2021/04/14 02:19:09;;;;;;;4.85;2.58;;;;;;;;;;5093349;28;20074;-66
2021/04/14 02:21:35;;;;;;;5.03;2.58;;;;;;;;;;5093056;28;20055;-65
2021/04/14 02:24:02;;;;;;;6.78;2.95;;;;;;;;;;5093659;28;20028;-66
2021/04/14 02:26:28;;;;;;;5.15;2.70;;;;;;;;;;5093397;28;20020;-65
2021/04/14 02:28:55;;;;;;;5.47;2.47;;;;;;;;;;5091636;28;20129;-66
2021/04/14 02:31:30;;;;;;;4.20;2.08;;;;;;;;;;5091984;28;20024;-65
2021/04/14 02:34:01;;;;;;;7.43;2.20;;;;;;;;;;5092995;28;20012;-66
2021/04/14 02:36:27;;;;;;;4.70;1.85;;;;;;;;;;5093471;28;20024;-66
2021/04/14 02:38:53;;;;;;;4.03;2.10;;;;;;;;;;5093236;28;20058;-66
2021/04/14 02:41:20;;;;;;;5.78;2.28;;;;;;;;;;5092882;28;20035;-66
2021/04/14 02:43:47;;;;;;;2.65;1.65;;;;;;;;;;5093064;28;20051;-66
2021/04/14 02:46:13;;;;;;;3.92;2.17;;;;;;;;;;5093116;28;20085;-66
2021/04/14 02:48:40;;;;;;;3.95;1.85;;;;;;;;;;5092613;28;20020;-66
2021/04/14 02:51:07;;;;;;;6.28;2.53;;;;;;;;;;5093066;28;20016;-65
2021/04/14 02:53:33;;;;;;;5.88;2.75;;;;;;;;;;5092677;28;20110;-65
2021/04/14 02:55:59;;;;;;;5.93;2.78;;;;;;;;;;5092674;28;20024;-66
2021/04/14 02:58:26;;;;;;;4.18;2.28;;;;;;;;;;5093045;28;20036;-66
2021/04/14 03:00:52;;;;;;;7.47;2.92;;;;;;;;;;5092805;28;20035;-65
2021/04/14 03:03:18;;;;;;;10.90;4.40;;;;;;;;;;5092409;28;20031;-66
2021/04/14 03:05:44;;;;;;;6.82;3.38;;;;;;;;;;5092869;28;20067;-65
2021/04/14 03:08:10;;;;;;;5.13;2.55;;;;;;;;;;5092836;28;20518;-66
2021/04/14 03:10:36;;;;;;;5.18;2.35;;;;;;;;;;5092567;28;20074;-66
2021/04/14 03:13:04;;;;;;;6.07;2.60;;;;;;;;;;5092747;28;20027;-65
2021/04/14 03:15:32;;;;;;;4.95;2.53;;;;;;;;;;5092743;28;20091;-66
2021/04/14 03:17:59;;;;;;;6.50;2.63;;;;;;;;;;5092512;28;20455;-66
2021/04/14 03:20:25;;;;;;;4.80;2.10;;;;;;;;;;5092574;28;20056;-66
2021/04/14 03:22:53;;;;;;;4.72;2.78;;;;;;;;;;5092543;28;20424;-66
2021/04/14 03:25:20;;;;;;;6.93;2.92;;;;;;;;;;5092202;28;20020;-65
2021/04/14 03:27:46;;;;;;;3.58;2.17;;;;;;;;;;5092648;28;20051;-66
2021/04/14 03:30:12;;;;;;;6.43;3.10;;;;;;;;;;5092146;28;20028;-66
2021/04/14 03:32:39;;;;;;;6.20;3.10;;;;;;;;;;5092599;28;20062;-66
2021/04/14 03:35:06;;;;;;;7.57;2.95;;;;;;;;;;5092434;28;20089;-66
2021/04/14 03:37:32;;;;;;;6.32;2.78;;;;;;;;;;5092258;28;20504;-66
2021/04/14 03:39:58;;;;;;;6.43;3.45;;;;;;;;;;5092456;28;20036;-66
2021/04/14 03:42:24;;;;;;;14.82;3.15;;;;;;;;;;5092428;28;20020;-66
2021/04/14 03:44:53;;;;;;;4.00;2.20;;;;;;;;;;5091961;28;20031;-66
2021/04/14 03:47:20;;;;;;;7.65;3.00;;;;;;;;;;5092309;28;20016;-66
2021/04/14 03:49:46;;;;;;;4.13;2.55;;;;;;;;;;5092322;28;20468;-66
2021/04/14 03:52:12;;;;;;;4.00;2.33;;;;;;;;;;5091919;28;20021;-66
2021/04/14 03:54:39;;;;;;;4.45;2.38;;;;;;;;;;5092415;28;20020;-66
2021/04/14 03:57:05;;;;;;;7.25;3.55;;;;;;;;;;5092394;28;20038;-66
2021/04/14 03:59:31;;;;;;;8.23;4.00;;;;;;;;;;5091931;28;20028;-66
2021/04/14 04:01:57;;;;;;;4.63;2.53;;;;;;;;;;5092115;28;20480;-66
2021/04/14 04:04:23;;;;;;;5.38;2.28;;;;;;;;;;5092197;28;20032;-66
2021/04/14 04:06:50;;;;;;;6.63;2.35;;;;;;;;;;5094754;28;20016;-66
2021/04/14 04:09:17;;;;;;;3.67;2.10;;;;;;;;;;5094752;28;20107;-66
2021/04/14 04:11:43;;;;;;;4.55;2.88;;;;;;;;;;5095961;28;20496;-66
2021/04/14 04:14:09;;;;;;;4.18;2.30;;;;;;;;;;5094162;28;20023;-66
2021/04/14 04:16:35;;;;;;;5.68;2.38;;;;;;;;;;5094654;28;20034;-66
2021/04/14 04:19:01;;;;;;;5.97;2.55;;;;;;;;;;5094417;28;20098;-66
2021/04/14 04:21:28;;;;;;;7.60;2.90;;;;;;;;;;5095403;28;20051;-66
2021/04/14 04:23:54;;;;;;;6.22;3.03;;;;;;;;;;5095671;28;20487;-66
2021/04/14 04:26:20;;;;;;;7.03;2.70;;;;;;;;;;5095327;28;20453;-65
2021/04/14 04:28:46;;;;;;;5.72;3.20;;;;;;;;;;5094267;28;20027;-65
2021/04/14 04:31:13;;;;;;;4.63;3.08;;;;;;;;;;5095620;28;20365;-66
2021/04/14 04:33:39;;;;;;;5.93;2.97;;;;;;;;;;5095266;28;20051;-66
2021/04/14 04:36:05;;;;;;;5.20;2.90;;;;;;;;;;5095607;28;20036;-66
2021/04/14 04:38:34;;;;;;;9.10;5.10;;;;;;;;;;5095596;28;20041;-65
2021/04/14 04:41:00;;;;;;;7.43;4.00;;;;;;;;;;5094974;28;20464;-65
2021/04/14 04:43:26;;;;;;;10.80;5.82;;;;;;;;;;5095315;28;20020;-66
2021/04/14 04:45:52;;;;;;;9.88;4.13;;;;;;;;;;5095344;28;20472;-66
2021/04/14 04:48:19;;;;;;;14.18;6.05;;;;;;;;;;5094959;28;20369;-66
2021/04/14 04:50:45;;;;;;;10.15;5.38;;;;;;;;;;5095241;28;20056;-66
2021/04/14 04:53:15;;;;;;;7.78;4.25;;;;;;;;;;5095158;28;20035;-65
2021/04/14 04:55:42;;;;;;;8.60;3.85;;;;;;;;;;5095052;28;20027;-66
2021/04/14 04:58:08;;;;;;;7.30;3.17;;;;;;;;;;5095360;28;20379;-65
2021/04/14 05:00:35;;;;;;;10.73;4.38;;;;;;;;;;5095110;28;20028;-65
2021/04/14 05:03:01;;;;;;;7.95;3.50;;;;;;;;;;5094628;28;20483;-65
2021/04/14 05:05:29;;;;;;;8.73;3.50;;;;;;;;;;5094911;28;20082;-65
2021/04/14 05:07:55;;;;;;;6.90;3.30;;;;;;;;;;5094946;28;20031;-66
2021/04/14 05:10:22;;;;;;;6.55;3.42;;;;;;;;;;5094562;28;20090;-65
2021/04/14 05:12:52;;;;;;;8.30;3.55;;;;;;;;;;5095104;28;20024;-65
2021/04/14 05:15:21;;;;;;;8.82;4.00;;;;;;;;;;5094818;28;20042;-65
2021/04/14 05:17:47;;;;;;;9.93;3.28;;;;;;;;;;5094210;28;20031;-65
2021/04/14 05:20:13;;;;;;;6.55;3.33;;;;;;;;;;5094429;28;20123;-65
2021/04/14 05:22:39;;;;;;;6.03;3.25;;;;;;;;;;5090322;28;20524;-65
2021/04/14 05:25:07;;;;;;;10.13;4.32;;;;;;;;;;5091973;28;20028;-66
2021/04/14 05:27:33;;;;;;;10.10;4.90;;;;;;;;;;5093041;28;20061;-64
2021/04/14 05:29:59;;;;;;;8.65;4.32;;;;;;;;;;5093178;28;20324;-66
2021/04/14 05:32:25;;;;;;;6.50;3.58;;;;;;;;;;5093575;28;20073;-65
2021/04/14 05:34:52;;;;;;;8.68;4.07;;;;;;;;;;5093944;28;20027;-65
2021/04/14 05:37:18;;;;;;;10.90;6.05;;;;;;;;;;5090128;28;20016;-65
2021/04/14 05:39:44;;;;;;;10.35;5.65;;;;;;;;;;5093869;28;20036;-65
2021/04/14 05:42:10;;;;;;;10.68;5.03;;;;;;;;;;5093372;28;20031;-64
2021/04/14 05:44:37;;;;;;;9.93;5.07;;;;;;;;;;5093318;28;20031;-66
2021/04/14 05:47:03;;;;;;;10.80;6.38;;;;;;;;;;5092115;28;20036;-65
2021/04/14 05:49:29;;;;;;;11.25;6.38;;;;;;;;;;5093781;28;20488;-65
2021/04/14 05:51:55;;;;;;;11.75;7.00;;;;;;;;;;5093464;28;20054;-66
2021/04/14 05:54:21;;;;;;;16.77;9.35;;;;;;;;;;5093949;28;20076;-65
2021/04/14 05:56:48;;;;;;;19.45;11.27;;;;;;;;;;5093008;28;20091;-65
2021/04/14 05:59:15;;;;;;;12.50;7.50;;;;;;;;;;5092155;28;20020;-67
2021/04/14 06:01:43;;;;;;;13.10;7.28;;;;;;;;;;5092244;28;20103;-66
2021/04/14 06:04:10;;;;;;;17.25;7.28;;;;;;;;;;5090307;28;20624;-65
2021/04/14 06:06:36;;;;;;;11.90;5.53;;;;;;;;;;5091129;28;20036;-64
2021/04/14 06:09:03;;;;;;;7.43;3.38;;;;;;;;;;5092580;28;20468;-65
2021/04/14 06:11:30;;;;;;;7.13;3.78;;;;;;;;;;5092915;28;20032;-65
2021/04/14 06:13:56;;;;;;;7.45;4.30;;;;;;;;;;5092109;28;20027;-66
2021/04/14 06:16:22;;;;;;;10.05;4.53;;;;;;;;;;5091872;28;20558;-66
2021/04/14 06:18:49;;;;;;;9.85;3.90;;;;;;;;;;5090389;28;20048;-65
2021/04/14 06:21:16;;;;;;;14.40;5.57;;;;;;;;;;5092256;28;20039;-65
2021/04/14 06:23:45;;;;;;;10.68;3.65;;;;;;;;;;5091471;28;20017;-64
2021/04/14 06:30:06;;;;;;;7.20;3.67;;;;;;;;;;5110373;27;20880;-65
2021/04/14 06:33:19;;;;;;;11.63;4.40;;;;;;;;;;5109173;27;20388;-65
2021/04/14 06:35:46;;;;;;;8.45;3.78;;;;;;;;;;5115909;28;20024;-64
2021/04/14 06:38:15;;;;;;;11.50;4.60;;;;;;;;;;5130455;27;20033;-64
2021/04/14 06:44:01;;;;;;;8.32;3.00;;;;;;;;;;5109891;27;20445;-67
2021/04/14 06:47:54;;;;;;;7.63;3.65;;;;;;;;;;5109262;27;20381;-66
2021/04/14 06:50:32;;;;;;;5.55;2.53;;;;;;;;;;5088316;28;20488;-67
2021/04/14 06:53:07;;;;;;;7.05;3.65;;;;;;;;;;5089288;28;20016;-67
2021/04/14 06:55:37;;;;;;;6.00;2.63;;;;;;;;;;5080196;28;20031;-68
2021/04/14 06:58:09;;;;;;;4.03;1.90;;;;;;;;;;5087148;28;20027;-67
2021/04/14 07:02:06;;;;;;;4.65;2.10;;;;;;;;;;5029895;28;20406;-65
2021/04/14 07:06:28;;;;;;;3.80;2.13;;;;;;;;;;5103164;27;20896;-67
2021/04/14 07:09:08;;;;;;;11.68;9.32;;;;;;;;;;5096002;28;20048;-68
2021/04/14 07:11:35;;;;;;;4.88;2.80;;;;;;;;;;5107536;28;20435;-68
2021/04/14 07:14:02;;;;;;;6.25;2.38;;;;;;;;;;5099043;28;20012;-70
2021/04/14 07:18:04;;;;;;;4.85;2.72;;;;;;;;;;5047957;28;20792;-66
2021/04/14 07:21:39;;;;;;;5.68;2.30;;;;;;;;;;5048737;28;20385;-68
2021/04/14 07:24:09;;;;;;;5.97;2.80;;;;;;;;;;5048282;28;20037;-66
2021/04/14 07:26:58;;;;;;;4.20;2.10;;;;;;;;;;5047756;28;20018;-67
2021/04/14 07:29:30;;;;;;;3.50;2.00;;;;;;;;;;5038879;28;20156;-69
2021/04/14 07:33:13;;;;;;;4.07;2.35;;;;;;;;;;5048543;28;20389;-68
2021/04/14 07:35:52;;;;;;;5.28;2.67;;;;;;;;;;5110072;27;20381;-69
2021/04/14 07:40:57;;;;;;;7.97;3.78;;;;;;;;;;5106271;27;20450;-69
2021/04/14 07:43:23;;;;;;;;;;;;;;;;;;5096669;28;20067;-69
2021/04/14 07:47:48;;;;;;;6.57;2.55;;;;;;;;;;5112821;27;20446;-67
2021/04/14 07:50:14;;;;;;;7.50;2.53;;;;;;;;;;5115478;28;20468;-66
2021/04/14 07:52:41;;;;;;;4.88;2.25;;;;;;;;;;5113535;28;20077;-65
2021/04/14 07:55:27;;;;;;;5.75;2.20;;;;;;;;;;5109885;28;20023;-65
2021/04/14 07:57:53;;;;;;;5.18;2.28;;;;;;;;;;5109636;28;20051;-67
2021/04/14 08:00:46;;;;;;;3.67;2.20;;;;;;;;;;5130682;27;20436;-65
2021/04/14 08:03:17;;;;;;;9.00;2.20;;;;;;;;;;5107871;28;20380;-65
2021/04/14 08:05:44;;;;;;;6.72;2.70;;;;;;;;;;5110233;28;20030;-66
2021/04/14 08:10:26;;;;;;;8.50;3.58;;;;;;;;;;5119966;27;20387;-66
2021/04/14 08:12:53;;;;;;;6.22;2.88;;;;;;;;;;5127528;28;20032;-65
2021/04/14 08:15:29;;;;;;;8.77;3.22;;;;;;;;;;5112035;28;20095;-66
2021/04/14 08:21:26;;;;;;;4.95;2.88;;;;;;;;;;5110000;27;20430;-65
2021/04/14 08:24:12;;;;;;;4.38;2.00;;;;;;;;;;5109558;28;20040;-65
2021/04/14 08:26:38;;;;;;;4.10;1.73;;;;;;;;;;5124985;28;20080;-67
2021/04/14 08:29:25;;;;;;;3.75;1.95;;;;;;;;;;5048821;28;20454;-65
2021/04/14 08:32:36;;;;;;;5.43;2.40;;;;;;;;;;5066944;28;20441;-64
2021/04/14 08:40:27;;;;;;;3.20;1.60;;;;;;;;;;5048901;28;20450;-68
2021/04/14 08:43:12;;;;;;;2.53;1.63;;;;;;;;;;5109786;27;1165362;-65
2021/04/14 08:46:25;;;;;;;4.57;1.40;;;;;;;;;;5148931;27;20923;-66
2021/04/14 08:48:58;;;;;;;1.60;1.10;;;;;;;;;;5161152;27;20041;-68
2021/04/14 08:51:25;;;;;;;2.60;1.23;;;;;;;;;;5146650;27;20085;-66
2021/04/14 08:53:55;;;;;;;7.47;2.00;;;;;;;;;;5148812;27;20063;-66
2021/04/14 08:56:21;;;;;;;3.38;1.50;;;;;;;;;;5148856;27;20014;-66
2021/04/14 08:58:49;;;;;;;4.20;2.00;;;;;;;;;;5149203;27;20116;-67
2021/04/14 09:01:16;;;;;;;3.33;1.60;;;;;;;;;;5147343;27;20023;-67
2021/04/14 09:06:57;;;;;;;6.15;2.58;;;;;;;;;;5108937;27;20737;-67
2021/04/14 09:09:25;;;;;;;6.43;2.38;;;;;;;;;;5097245;28;20028;-66
2021/04/14 09:12:04;;;;;;;6.93;3.15;;;;;;;;;;5091563;28;20040;-66
2021/04/14 09:14:31;;;;;;;4.47;2.33;;;;;;;;;;5089404;28;20472;-69
2021/04/14 09:18:43;;;;;;;3.55;1.65;;;;;;;;;;5065580;28;20895;-68
2021/04/14 09:22:18;;;;;;;6.68;3.42;;;;;;;;;;5068198;28;20407;-68
2021/04/14 09:24:50;;;;;;;6.78;2.20;;;;;;;;;;5064457;28;20016;-71
2021/04/14 09:27:39;;;;;;;7.10;4.00;;;;;;;;;;5054227;28;20021;-68
2021/04/14 09:30:27;;;;;;;3.22;1.80;;;;;;;;;;5109162;27;20361;-68
2021/04/14 09:35:50;;;;;;;4.75;2.10;;;;;;;;;;5108709;27;20392;-68
2021/04/14 09:38:27;;;;;;;8.23;2.28;;;;;;;;;;5108743;28;20112;-68
2021/04/14 09:41:37;;;;;;;7.53;2.85;;;;;;;;;;5065905;28;20964;-69
2021/04/14 09:44:22;;;;;;;6.13;2.90;;;;;;;;;;5055811;28;20063;-68
2021/04/14 09:47:09;;;;;;;5.00;1.77;;;;;;;;;;5046555;28;20025;-70
2021/04/14 09:49:37;;;;;;;4.07;1.65;;;;;;;;;;5051226;28;20029;-67
2021/04/14 09:52:04;;;;;;;4.55;2.15;;;;;;;;;;5045466;28;20017;-70
2021/04/14 09:54:33;;;;;;;4.85;1.95;;;;;;;;;;5044491;28;20099;-71
2021/04/14 09:57:02;;;;;;;3.78;1.50;;;;;;;;;;5048146;28;20018;-70
2021/04/14 09:59:34;;;;;;;2.83;1.33;;;;;;;;;;5051018;28;20481;-71
2021/04/14 10:02:02;;;;;;;2.33;1.10;;;;;;;;;;5051379;28;20082;-68
2021/04/14 10:04:29;;;;;;;5.18;2.10;;;;;;;;;;5065615;28;20500;-68
2021/04/14 10:06:56;;;;;;;4.05;1.90;;;;;;;;;;5052376;28;20071;-68
2021/04/14 10:09:29;;;;;;;4.55;2.30;;;;;;;;;;5055005;28;20032;-68
2021/04/14 10:11:55;;;;;;;6.18;2.63;;;;;;;;;;5052287;28;20025;-69
2021/04/14 10:14:23;;;;;;;4.78;2.40;;;;;;;;;;5054827;28;20017;-69
2021/04/14 10:16:50;;;;;;;4.05;1.60;;;;;;;;;;5062430;28;20500;-71
2021/04/14 10:19:35;;;;;;;5.82;2.20;;;;;;;;;;5046699;28;20029;-72
2021/04/14 10:22:18;;;;;;;3.47;1.58;;;;;;;;;;5045573;28;20537;-68
2021/04/14 10:24:45;;;;;;;5.35;1.90;;;;;;;;;;5046341;28;20033;-69
2021/04/14 10:27:17;;;;;;;2.53;1.65;;;;;;;;;;5046609;28;20029;-70
2021/04/14 10:30:37;;;;;;;5.22;1.48;;;;;;;;;;5109183;27;20406;-68
2021/04/14 10:33:04;;;;;;;2.28;1.30;;;;;;;;;;5109206;28;20058;-68
2021/04/14 10:35:31;;;;;;;3.13;1.50;;;;;;;;;;5109576;28;20023;-71
2021/04/14 10:37:58;;;;;;;3.45;1.60;;;;;;;;;;5109033;28;20410;-70
2021/04/14 10:41:32;;;;;;;5.22;2.00;;;;;;;;;;5069679;28;20895;-69
2021/04/14 10:43:59;;;;;;;3.95;1.80;;;;;;;;;;5051882;28;20093;-69
2021/04/14 10:46:31;;;;;;;3.72;1.70;;;;;;;;;;5068754;28;20025;-72
2021/04/14 10:48:59;;;;;;;4.40;2.10;;;;;;;;;;5069842;28;20417;-72
2021/04/14 10:51:33;;;;;;;9.80;3.38;;;;;;;;;;5069082;28;20029;-69
2021/04/14 10:54:21;;;;;;;4.32;1.88;;;;;;;;;;5106857;27;20385;-72
2021/04/14 10:56:56;;;;;;;4.30;2.40;;;;;;;;;;5108472;28;20024;-70
2021/04/14 10:59:23;;;;;;;5.53;2.63;;;;;;;;;;5122424;28;20027;-67
2021/04/14 11:01:50;;;;;;;4.05;1.92;;;;;;;;;;5113913;28;20106;-68
2021/04/14 11:04:16;;;;;;;8.32;3.33;;;;;;;;;;5108526;28;20030;-67
2021/04/14 11:06:46;;;;;;;6.90;2.90;;;;;;;;;;5109061;28;20024;-67
2021/04/14 11:09:13;;;;;;;6.53;3.20;;;;;;;;;;5117534;28;20023;-67
2021/04/14 11:11:41;;;;;;;2.47;1.67;;;;;;;;;;5127937;28;20075;-69
2021/04/14 11:14:08;;;;;;;6.18;2.50;;;;;;;;;;5128099;28;20066;-67
2021/04/14 11:16:37;;;;;;;5.47;2.58;;;;;;;;;;5128728;28;20498;-67
2021/04/14 11:19:12;;;;;;;8.18;2.53;;;;;;;;;;5113329;28;20115;-69
2021/04/14 11:21:39;;;;;;;4.90;2.03;;;;;;;;;;5092136;28;20052;-68
2021/04/14 11:24:07;;;;;;;4.13;2.30;;;;;;;;;;5112838;28;20016;-68
2021/04/14 11:26:36;;;;;;;3.40;1.83;;;;;;;;;;5108816;28;20028;-69
2021/04/14 11:29:02;;;;;;;6.93;2.45;;;;;;;;;;5109174;28;20016;-69
2021/04/14 11:31:34;;;;;;;3.20;1.73;;;;;;;;;;5112802;28;20575;-69
2021/04/14 11:34:02;;;;;;;4.25;2.30;;;;;;;;;;5098071;28;20047;-68
2021/04/14 11:36:31;;;;;;;3.95;2.00;;;;;;;;;;5108823;28;20728;-68
2021/04/14 11:38:57;;;;;;;5.05;2.72;;;;;;;;;;5109354;28;20023;-68
2021/04/14 11:41:28;;;;;;;6.65;2.90;;;;;;;;;;5109391;28;20149;-68
2021/04/14 11:43:54;;;;;;;3.72;2.05;;;;;;;;;;5108807;28;20027;-68
2021/04/14 11:46:34;;;;;;;5.53;2.33;;;;;;;;;;5109122;28;20035;-68
2021/04/14 11:49:08;;;;;;;8.63;2.90;;;;;;;;;;5109167;28;20039;-69
2021/04/14 11:51:36;;;;;;;4.95;2.08;;;;;;;;;;5108870;28;20032;-69
2021/04/14 11:54:27;;;;;;;4.35;2.08;;;;;;;;;;5131033;27;20161;-69
2021/04/14 11:56:59;;;;;;;3.60;1.98;;;;;;;;;;5091549;28;20107;-67
2021/04/14 12:00:10;;;;;;;4.65;2.03;;;;;;;;;;5049631;28;20397;-67
2021/04/14 12:02:37;;;;;;;3.78;2.08;;;;;;;;;;5049318;28;20133;-68
2021/04/14 12:05:06;;;;;;;3.65;1.98;;;;;;;;;;5046380;28;20091;-67
2021/04/14 12:07:32;;;;;;;4.30;2.15;;;;;;;;;;5049726;28;20048;-66
2021/04/14 12:09:59;;;;;;;5.75;2.70;;;;;;;;;;5049305;28;20317;-67
2021/04/14 12:12:25;;;;;;;7.25;2.78;;;;;;;;;;5049128;28;20025;-66
2021/04/14 12:14:52;;;;;;;5.18;2.20;;;;;;;;;;5048237;28;20022;-71
2021/04/14 12:17:18;;;;;;;5.75;2.70;;;;;;;;;;5049374;28;20026;-67
2021/04/14 12:19:44;;;;;;;7.00;2.88;;;;;;;;;;5049108;28;20041;-67
2021/04/14 12:22:12;;;;;;;4.07;2.13;;;;;;;;;;5049471;28;20389;-68
2021/04/14 12:24:38;;;;;;;6.50;2.67;;;;;;;;;;5049070;28;20025;-67
2021/04/14 12:27:04;;;;;;;5.65;1.77;;;;;;;;;;5048309;28;20108;-69
2021/04/14 12:29:31;;;;;;;4.80;2.35;;;;;;;;;;5049290;28;20035;-68
2021/04/14 12:31:57;;;;;;;7.28;3.28;;;;;;;;;;5048925;28;20022;-68
2021/04/14 12:34:49;;;;;;;7.40;3.20;;;;;;;;;;5110381;27;20377;-67
2021/04/14 12:37:15;;;;;;;7.28;2.83;;;;;;;;;;5109056;28;20050;-66
2021/04/14 12:39:42;;;;;;;5.00;2.13;;;;;;;;;;5109884;28;20102;-67
2021/04/14 12:42:08;;;;;;;4.07;1.98;;;;;;;;;;5110384;28;20542;-68
2021/04/14 12:44:34;;;;;;;4.13;1.80;;;;;;;;;;5110231;28;20028;-67
2021/04/14 12:47:01;;;;;;;4.07;1.92;;;;;;;;;;5109971;28;20024;-69
2021/04/14 12:49:27;;;;;;;3.95;1.52;;;;;;;;;;5110152;28;20163;-67
2021/04/14 12:52:33;;;;;;;4.38;1.80;;;;;;;;;;5069857;27;20441;-68
2021/04/14 12:55:00;;;;;;;3.42;1.90;;;;;;;;;;5069326;28;20203;-67
2021/04/14 12:57:28;;;;;;;3.35;1.60;;;;;;;;;;5069792;28;20052;-68
2021/04/14 13:00:06;;;;;;;3.88;2.30;;;;;;;;;;5069394;28;20108;-67
2021/04/14 13:02:39;;;;;;;5.43;2.70;;;;;;;;;;5069700;28;20488;-67
2021/04/14 13:05:14;;;;;;;4.07;1.85;;;;;;;;;;5069657;28;20021;-68
2021/04/14 13:07:48;;;;;;;6.78;2.60;;;;;;;;;;5069282;28;20027;-68
2021/04/14 13:10:16;;;;;;;4.10;2.30;;;;;;;;;;5069437;28;20493;-68
2021/04/14 13:12:42;;;;;;;8.68;3.20;;;;;;;;;;5069488;28;20031;-67
2021/04/14 13:15:11;;;;;;;4.80;2.28;;;;;;;;;;5068970;28;20500;-67
2021/04/14 13:17:38;;;;;;;6.38;3.40;;;;;;;;;;5069278;28;20028;-67
2021/04/14 13:20:05;;;;;;;4.43;2.17;;;;;;;;;;5069323;28;20453;-67
2021/04/14 13:22:45;;;;;;;4.68;2.35;;;;;;;;;;5068891;28;20025;-67
2021/04/14 13:25:11;;;;;;;4.60;2.40;;;;;;;;;;5069288;28;20028;-67
2021/04/14 13:30:22;;;;;;;5.22;2.83;;;;;;;;;;5110397;27;20389;-68
2021/04/14 13:32:50;;;;;;;7.65;2.80;;;;;;;;;;5110457;28;20023;-68
2021/04/14 13:35:19;;;;;;;6.35;2.85;;;;;;;;;;5109915;28;20076;-68
2021/04/14 13:37:50;;;;;;;5.20;3.13;;;;;;;;;;5110327;28;20047;-69
2021/04/14 13:40:20;;;;;;;6.88;3.53;;;;;;;;;;5110325;28;20028;-68
2021/04/14 13:45:51;;;;;;;8.18;4.32;;;;;;;;;;5110562;27;20754;-70
2021/04/14 13:48:23;;;;;;;4.63;2.25;;;;;;;;;;5110603;28;20051;-68
2021/04/14 13:51:15;;;;;;;5.03;2.85;;;;;;;;;;5109784;27;20385;-67
2021/04/14 13:55:06;;;;;;;4.78;2.40;;;;;;;;;;5110368;27;20846;-66
2021/04/14 13:58:39;;;;;;;4.15;2.15;;;;;;;;;;5049956;28;20459;-66
2021/04/14 14:01:08;;;;;;;4.38;2.28;;;;;;;;;;5049604;28;20029;-66
2021/04/14 14:03:34;;;;;;;8.85;2.85;;;;;;;;;;5049498;28;20076;-66
2021/04/14 14:07:44;;;;;;;15.80;2.85;;;;;;;;;;5110478;27;20381;-66
2021/04/14 14:10:32;;;;;;;2.80;1.77;;;;;;;;;;5109952;28;20028;-67
2021/04/14 14:13:07;;;;;;;6.93;3.65;;;;;;;;;;5110376;28;20024;-67
2021/04/14 14:15:40;;;;;;;8.90;3.78;;;;;;;;;;5110143;28;20472;-67
2021/04/14 14:18:13;;;;;;;14.52;5.25;;;;;;;;;;5109863;28;20492;-66
2021/04/14 14:20:39;;;;;;;4.35;2.50;;;;;;;;;;5110312;28;20020;-66
2021/04/14 14:23:07;;;;;;;8.20;3.50;;;;;;;;;;5110110;28;20506;-66
2021/04/14 14:25:33;;;;;;;7.75;4.43;;;;;;;;;;5108527;28;20024;-66
2021/04/14 14:28:00;;;;;;;8.77;3.90;;;;;;;;;;5110181;28;20380;-66
2021/04/14 14:30:27;;;;;;;12.30;6.15;;;;;;;;;;5110046;28;20078;-67
2021/04/14 14:32:53;;;;;;;13.52;6.80;;;;;;;;;;5109570;28;20028;-67
2021/04/14 14:35:21;;;;;;;17.67;9.43;;;;;;;;;;5109853;28;20016;-68
2021/04/14 14:38:19;;;;;;;11.75;5.10;;;;;;;;;;5110121;27;20896;-66
2021/04/14 14:44:01;;;;;;;9.38;4.93;;;;;;;;;;5110359;27;20380;-66
2021/04/14 14:46:29;;;;;;;6.10;3.13;;;;;;;;;;5110220;28;20187;-67
2021/04/14 14:49:03;;;;;;;13.30;6.63;;;;;;;;;;5110409;28;20058;-67
2021/04/14 14:51:29;;;;;;;10.20;5.40;;;;;;;;;;5110274;28;20023;-67
2021/04/14 14:55:47;;;;;;;6.38;2.83;;;;;;;;;;5110283;27;20453;-69
2021/04/14 14:58:17;;;;;;;6.90;3.72;;;;;;;;;;5110331;28;20483;-69
2021/04/14 15:00:46;;;;;;;13.07;5.55;;;;;;;;;;5109927;28;20565;-66
2021/04/14 15:04:32;;;;;;;15.77;8.07;;;;;;;;;;5110407;27;20952;-69
2021/04/14 15:07:53;;;;;;;14.13;8.48;;;;;;;;;;5110202;27;20373;-67
2021/04/14 15:10:21;;;;;;;15.60;9.02;;;;;;;;;;5110409;28;20058;-67
2021/04/14 15:12:47;;;;;;;13.07;6.00;;;;;;;;;;5110299;28;20034;-67
2021/04/14 15:15:14;;;;;;;11.20;6.00;;;;;;;;;;5109991;28;20024;-69
2021/04/14 15:17:40;;;;;;;13.00;3.47;;;;;;;;;;5110207;28;20019;-67
2021/04/14 15:20:07;;;;;;;8.77;4.97;;;;;;;;;;5110206;28;20400;-67
2021/04/14 15:22:34;;;;;;;10.60;5.78;;;;;;;;;;5108377;28;20376;-67
2021/04/14 15:25:01;;;;;;;16.35;4.88;;;;;;;;;;5110126;28;20051;-67
2021/04/14 15:27:28;;;;;;;12.07;5.15;;;;;;;;;;5109738;28;20059;-68
2021/04/14 15:30:28;;;;;;;9.52;5.03;;;;;;;;;;5085523;27;20708;-67
2021/04/14 15:32:54;;;;;;;6.63;3.00;;;;;;;;;;5069806;28;20016;-69
2021/04/14 15:35:22;;;;;;;7.55;3.83;;;;;;;;;;5069331;28;20021;-66
2021/04/14 15:37:49;;;;;;;8.73;3.95;;;;;;;;;;5069729;28;20104;-66
2021/04/14 15:40:16;;;;;;;7.22;3.65;;;;;;;;;;5069760;28;20020;-67
2021/04/14 15:42:43;;;;;;;5.90;3.15;;;;;;;;;;5069240;28;20112;-67
2021/04/14 15:45:10;;;;;;;7.22;3.63;;;;;;;;;;5069737;28;20024;-67
2021/04/14 15:47:36;;;;;;;10.18;5.68;;;;;;;;;;5069780;28;20025;-67
2021/04/14 15:50:03;;;;;;;11.75;4.80;;;;;;;;;;5069253;28;20037;-67
2021/04/14 15:52:33;;;;;;;9.38;4.57;;;;;;;;;;5069545;28;20052;-68
2021/04/14 15:55:06;;;;;;;11.48;5.35;;;;;;;;;;5068063;28;20025;-68